createdAt,value
2022-10-02T00:00:01.100Z,39.40
2022-10-02T00:01:01.099Z,39.00
2022-10-02T00:02:01.095Z,39.20
2022-10-02T00:03:01.093Z,39.00
2022-10-02T00:04:01.153Z,39.50
2022-10-02T00:05:01.111Z,38.10
2022-10-02T00:06:01.090Z,38.70
2022-10-02T00:07:01.087Z,38.60
2022-10-02T00:08:01.087Z,38.90
2022-10-02T00:09:01.089Z,37.50
2022-10-02T00:10:01.083Z,39.50
2022-10-02T00:11:01.110Z,37.20
2022-10-02T00:12:01.081Z,38.10
2022-10-02T00:13:01.081Z,37.90
2022-10-02T00:14:01.081Z,37.10
2022-10-02T00:15:01.078Z,38.20
2022-10-02T00:16:01.172Z,40.10
2022-10-02T00:17:01.076Z,39.40
2022-10-02T00:18:01.073Z,39.30
2022-10-02T00:19:01.077Z,38.80
2022-10-02T00:20:01.069Z,37.80
2022-10-02T00:21:01.074Z,38.60
2022-10-02T00:22:01.071Z,38.50
2022-10-02T00:23:01.071Z,39.50
2022-10-02T00:24:01.071Z,39.90
2022-10-02T00:25:01.089Z,39.20
2022-10-02T00:26:01.062Z,39.30
2022-10-02T00:27:01.086Z,39.80
2022-10-02T00:28:01.172Z,39.20
2022-10-02T00:29:01.065Z,38.80
2022-10-02T00:30:01.060Z,38.50
2022-10-02T00:31:01.060Z,38.60
2022-10-02T00:32:01.163Z,38.10
2022-10-02T00:33:01.061Z,38.00
2022-10-02T00:34:01.061Z,38.70
2022-10-02T00:35:01.060Z,38.10
2022-10-02T00:36:01.058Z,37.80
2022-10-02T00:37:01.054Z,38.00
2022-10-02T00:38:01.053Z,38.00
2022-10-02T00:39:01.056Z,38.10
2022-10-02T00:40:01.057Z,39.10
2022-10-02T00:41:01.049Z,38.60
2022-10-02T00:42:01.047Z,39.10
2022-10-02T00:43:01.074Z,38.50
2022-10-02T00:44:01.049Z,39.60
2022-10-02T00:45:01.050Z,39.90
2022-10-02T00:46:01.099Z,38.80
2022-10-02T00:47:01.045Z,37.80
2022-10-02T00:48:01.045Z,38.30
2022-10-02T00:49:01.041Z,38.80
2022-10-02T00:50:01.037Z,39.60
2022-10-02T00:51:01.043Z,39.00
2022-10-02T00:52:01.039Z,39.00
2022-10-02T00:53:01.038Z,38.90
2022-10-02T00:54:01.035Z,39.40
2022-10-02T00:55:01.039Z,39.50
2022-10-02T00:56:01.039Z,48.80
2022-10-02T00:57:01.034Z,48.80
2022-10-02T00:58:01.035Z,48.00
2022-10-02T00:59:01.050Z,47.30
2022-10-02T01:00:01.029Z,48.00
2022-10-02T01:01:01.081Z,47.00
2022-10-02T01:02:01.068Z,48.30
2022-10-02T01:03:01.035Z,46.40
2022-10-02T01:04:01.025Z,46.20
2022-10-02T01:05:01.027Z,46.10
2022-10-02T01:06:01.031Z,45.50
2022-10-02T01:07:01.024Z,45.40
2022-10-02T01:08:01.026Z,45.00
2022-10-02T01:09:01.021Z,46.00
2022-10-02T01:10:01.017Z,45.80
2022-10-02T01:11:01.017Z,45.70
2022-10-02T01:12:01.019Z,44.30
2022-10-02T01:13:01.014Z,44.00
2022-10-02T01:14:01.012Z,45.80
2022-10-02T01:15:01.037Z,43.60
2022-10-02T01:16:01.109Z,44.20
2022-10-02T01:17:01.025Z,43.10
2022-10-02T01:18:01.008Z,45.10
2022-10-02T01:19:01.013Z,44.10
2022-10-02T01:20:01.014Z,43.80
2022-10-02T01:21:01.005Z,44.10
2022-10-02T01:22:01.006Z,43.10
2022-10-02T01:23:01.007Z,44.70
2022-10-02T01:24:01.008Z,45.30
2022-10-02T01:25:01.007Z,45.40
2022-10-02T01:26:01.003Z,44.70
2022-10-02T01:27:01.008Z,44.30
2022-10-02T01:28:01.068Z,44.30
2022-10-02T01:29:01.002Z,44.80
2022-10-02T01:30:00.998Z,44.20
2022-10-02T01:31:01.070Z,44.40
2022-10-02T01:32:01.073Z,43.90
2022-10-02T01:33:00.999Z,44.00
2022-10-02T01:34:00.993Z,43.00
2022-10-02T01:35:01.002Z,43.50
2022-10-02T01:36:00.991Z,44.00
2022-10-02T01:37:00.994Z,44.40
2022-10-02T01:38:00.985Z,43.30
2022-10-02T01:39:00.990Z,40.10
2022-10-02T01:40:00.988Z,42.10
2022-10-02T01:41:00.989Z,40.10
2022-10-02T01:42:00.986Z,38.90
2022-10-02T01:43:00.990Z,39.90
2022-10-02T01:44:00.984Z,38.50
2022-10-02T01:45:00.986Z,37.60
2022-10-02T01:46:01.131Z,39.10
2022-10-02T01:47:01.002Z,38.70
2022-10-02T01:48:00.978Z,37.30
2022-10-02T01:49:00.978Z,38.40
2022-10-02T01:50:00.972Z,39.00
2022-10-02T01:51:00.977Z,38.40
2022-10-02T01:52:00.971Z,38.20
2022-10-02T01:53:00.980Z,37.10
2022-10-02T01:54:00.976Z,37.70
2022-10-02T01:55:00.970Z,38.00
2022-10-02T01:56:00.973Z,37.20
2022-10-02T01:57:00.969Z,38.40
2022-10-02T01:58:00.971Z,37.90
2022-10-02T01:59:00.969Z,39.50
2022-10-02T02:00:00.969Z,38.60
2022-10-02T02:01:01.016Z,38.20
2022-10-02T02:02:01.005Z,36.90
2022-10-02T02:03:00.986Z,36.20
2022-10-02T02:04:00.964Z,37.00
2022-10-02T02:05:00.961Z,37.00
2022-10-02T02:06:00.961Z,36.90
2022-10-02T02:07:00.957Z,37.30
2022-10-02T02:08:00.958Z,36.60
2022-10-02T02:09:02.080Z,38.10
2022-10-02T02:10:00.955Z,36.00
2022-10-02T02:11:00.955Z,37.00
2022-10-02T02:12:00.949Z,35.80
2022-10-02T02:13:00.954Z,36.30
2022-10-02T02:14:00.951Z,36.50
2022-10-02T02:15:00.952Z,36.80
2022-10-02T02:16:01.029Z,36.50
2022-10-02T02:17:01.040Z,36.20
2022-10-02T02:18:00.945Z,36.60
2022-10-02T02:19:00.969Z,36.70
2022-10-02T02:20:00.946Z,36.00
2022-10-02T02:21:00.943Z,36.30
2022-10-02T02:22:00.940Z,35.80
2022-10-02T02:23:00.944Z,36.70
2022-10-02T02:24:00.938Z,35.70
2022-10-02T02:25:00.940Z,35.50
2022-10-02T02:26:00.941Z,36.90
2022-10-02T02:27:00.938Z,36.50
2022-10-02T02:28:00.981Z,35.70
2022-10-02T02:29:00.940Z,35.10
2022-10-02T02:30:00.932Z,35.70
2022-10-02T02:31:00.982Z,37.10
2022-10-02T02:32:00.947Z,37.90
2022-10-02T02:33:00.931Z,37.80
2022-10-02T02:34:00.937Z,36.60
2022-10-02T02:35:00.951Z,37.40
2022-10-02T02:36:00.929Z,37.20
2022-10-02T02:37:00.931Z,35.10
2022-10-02T02:38:00.924Z,35.60
2022-10-02T02:39:00.923Z,35.50
2022-10-02T02:40:00.928Z,35.20
2022-10-02T02:41:00.922Z,35.20
2022-10-02T02:42:00.916Z,35.20
2022-10-02T02:43:00.919Z,34.90
2022-10-02T02:44:00.919Z,36.50
2022-10-02T02:45:00.925Z,36.00
2022-10-02T02:46:00.958Z,37.00
2022-10-02T02:47:00.917Z,47.20
2022-10-02T02:48:00.914Z,46.00
2022-10-02T02:49:00.916Z,47.30
2022-10-02T02:50:00.913Z,47.50
2022-10-02T02:51:00.932Z,47.00
2022-10-02T02:52:00.913Z,46.10
2022-10-02T02:53:00.905Z,45.20
2022-10-02T02:54:00.909Z,45.10
2022-10-02T02:55:00.909Z,45.20
2022-10-02T02:56:00.902Z,43.30
2022-10-02T02:57:00.911Z,45.80
2022-10-02T02:58:00.899Z,45.80
2022-10-02T02:59:00.903Z,46.00
2022-10-02T03:00:00.901Z,45.30
2022-10-02T03:01:00.989Z,46.10
2022-10-02T03:02:00.920Z,45.10
2022-10-02T03:03:00.897Z,46.30
2022-10-02T03:04:00.895Z,45.00
2022-10-02T03:05:00.899Z,45.00
2022-10-02T03:06:00.894Z,44.90
2022-10-02T03:07:00.918Z,45.40
2022-10-02T03:08:00.890Z,45.00
2022-10-02T03:09:00.898Z,45.20
2022-10-02T03:10:00.889Z,45.30
2022-10-02T03:11:00.886Z,45.20
2022-10-02T03:12:00.892Z,44.60
2022-10-02T03:13:00.892Z,45.20
2022-10-02T03:14:00.880Z,43.90
2022-10-02T03:15:00.891Z,44.90
2022-10-02T03:16:00.945Z,45.10
2022-10-02T03:17:00.890Z,44.60
2022-10-02T03:18:00.882Z,44.80
2022-10-02T03:19:00.886Z,44.50
2022-10-02T03:20:00.881Z,44.00
2022-10-02T03:21:00.880Z,45.60
2022-10-02T03:22:00.871Z,45.20
2022-10-02T03:23:00.892Z,44.30
2022-10-02T03:24:00.875Z,43.50
2022-10-02T03:25:00.877Z,42.80
2022-10-02T03:26:00.869Z,42.50
2022-10-02T03:27:00.867Z,42.00
2022-10-02T03:28:00.906Z,42.80
2022-10-02T03:29:00.912Z,43.80
2022-10-02T03:30:00.865Z,38.70
2022-10-02T03:31:00.866Z,38.90
2022-10-02T03:32:00.869Z,39.10
2022-10-02T03:33:00.867Z,38.50
2022-10-02T03:34:00.856Z,38.50
2022-10-02T03:35:00.865Z,38.90
2022-10-02T03:36:00.860Z,38.60
2022-10-02T03:37:00.857Z,39.70
2022-10-02T03:38:00.855Z,38.20
2022-10-02T03:39:23.767Z,38.30
2022-10-02T03:40:00.855Z,39.10
2022-10-02T03:41:00.855Z,38.40
2022-10-02T03:42:00.855Z,37.60
2022-10-02T03:43:00.860Z,38.20
2022-10-02T03:44:00.850Z,40.00
2022-10-02T03:45:00.853Z,38.50
2022-10-02T03:46:00.898Z,37.80
2022-10-02T03:47:00.841Z,39.10
2022-10-02T03:48:00.846Z,37.70
2022-10-02T03:49:00.846Z,37.30
2022-10-02T03:50:00.852Z,37.10
2022-10-02T03:51:00.843Z,41.50
2022-10-02T03:52:00.840Z,38.30
2022-10-02T03:53:00.840Z,38.10
2022-10-02T03:54:00.840Z,37.70
2022-10-02T03:55:00.856Z,37.00
2022-10-02T03:56:00.835Z,35.50
2022-10-02T03:57:00.837Z,37.20
2022-10-02T03:58:00.834Z,37.60
2022-10-02T03:59:00.831Z,37.30
2022-10-02T04:00:00.831Z,36.90
2022-10-02T04:01:00.829Z,37.00
2022-10-02T04:02:00.906Z,37.70
2022-10-02T04:03:00.830Z,36.70
2022-10-02T04:04:00.944Z,35.90
2022-10-02T04:05:00.825Z,36.90
2022-10-02T04:06:00.824Z,36.30
2022-10-02T04:07:00.827Z,36.30
2022-10-02T04:08:00.823Z,36.90
2022-10-02T04:09:00.822Z,35.40
2022-10-02T04:10:00.824Z,36.60
2022-10-02T04:11:00.838Z,36.80
2022-10-02T04:12:00.821Z,36.40
2022-10-02T04:13:00.815Z,35.80
2022-10-02T04:14:00.812Z,35.40
2022-10-02T04:15:00.811Z,36.10
2022-10-02T04:16:00.852Z,36.60
2022-10-02T04:17:00.813Z,35.90
2022-10-02T04:18:00.813Z,35.00
2022-10-02T04:19:00.808Z,35.70
2022-10-02T04:20:00.805Z,32.20
2022-10-02T04:21:00.805Z,33.00
2022-10-02T04:22:00.804Z,32.90
2022-10-02T04:23:00.804Z,34.50
2022-10-02T04:24:00.803Z,33.90
2022-10-02T04:25:00.819Z,31.90
2022-10-02T04:26:00.799Z,34.90
2022-10-02T04:27:00.864Z,34.20
2022-10-02T04:28:00.880Z,35.10
2022-10-02T04:29:00.798Z,36.10
2022-10-02T04:30:00.795Z,35.10
2022-10-02T04:31:00.796Z,35.80
2022-10-02T04:32:00.799Z,35.80
2022-10-02T04:33:00.791Z,35.50
2022-10-02T04:34:00.792Z,36.00
2022-10-02T04:35:00.790Z,34.30
2022-10-02T04:36:00.785Z,35.70
2022-10-02T04:37:00.786Z,34.90
2022-10-02T04:38:00.793Z,35.20
2022-10-02T04:39:00.785Z,35.50
2022-10-02T04:40:00.782Z,35.30
2022-10-02T04:41:00.782Z,35.30
2022-10-02T04:42:00.781Z,35.60
2022-10-02T04:43:00.800Z,35.20
2022-10-02T04:44:00.781Z,34.70
2022-10-02T04:45:00.775Z,35.20
2022-10-02T04:46:00.828Z,36.40
2022-10-02T04:47:00.771Z,35.50
2022-10-02T04:48:00.776Z,36.20
2022-10-02T04:49:00.775Z,36.40
2022-10-02T04:50:00.769Z,36.90
2022-10-02T04:51:00.762Z,34.50
2022-10-02T04:52:00.767Z,43.40
2022-10-02T04:53:00.764Z,44.00
2022-10-02T04:54:00.768Z,45.40
2022-10-02T04:55:00.763Z,46.40
2022-10-02T04:56:00.763Z,44.50
2022-10-02T04:57:00.757Z,44.90
2022-10-02T04:58:00.762Z,46.10
2022-10-02T04:59:00.782Z,44.10
2022-10-02T05:00:00.754Z,44.10
2022-10-02T05:01:00.823Z,44.20
2022-10-02T05:02:00.793Z,43.20
2022-10-02T05:03:00.751Z,42.40
2022-10-02T05:04:04.206Z,44.10
2022-10-02T05:05:00.749Z,43.60
2022-10-02T05:06:00.755Z,43.30
2022-10-02T05:07:00.747Z,43.50
2022-10-02T05:08:00.745Z,43.40
2022-10-02T05:09:00.745Z,42.30
2022-10-02T05:10:00.742Z,42.60
2022-10-02T05:11:00.746Z,42.10
2022-10-02T05:12:00.739Z,42.10
2022-10-02T05:13:00.746Z,41.30
2022-10-02T05:14:00.742Z,40.50
2022-10-02T05:15:00.761Z,42.70
2022-10-02T05:16:00.807Z,42.10
2022-10-02T05:17:00.738Z,43.80
2022-10-02T05:18:00.736Z,42.60
2022-10-02T05:19:00.738Z,42.70
2022-10-02T05:20:00.730Z,42.90
2022-10-02T05:21:00.730Z,42.70
2022-10-02T05:22:00.731Z,42.80
2022-10-02T05:23:00.732Z,41.60
2022-10-02T05:24:00.730Z,42.60
2022-10-02T05:25:00.723Z,42.20
2022-10-02T05:26:00.724Z,41.90
2022-10-02T05:27:00.721Z,44.10
2022-10-02T05:28:00.739Z,43.10
2022-10-02T05:29:00.723Z,43.00
2022-10-02T05:30:00.717Z,42.30
2022-10-02T05:31:00.788Z,42.10
2022-10-02T05:32:00.718Z,42.50
2022-10-02T05:33:00.715Z,42.10
2022-10-02T05:34:00.713Z,42.30
2022-10-02T05:35:00.713Z,42.20
2022-10-02T05:36:00.715Z,41.50
2022-10-02T05:37:00.709Z,41.20
2022-10-02T05:38:00.713Z,42.20
2022-10-02T05:39:00.708Z,40.90
2022-10-02T05:40:00.709Z,38.00
2022-10-02T05:41:00.705Z,37.50
2022-10-02T05:42:00.706Z,37.50
2022-10-02T05:43:00.702Z,37.80
2022-10-02T05:44:00.703Z,36.80
2022-10-02T05:45:00.701Z,37.80
2022-10-02T05:46:00.700Z,37.30
2022-10-02T05:47:00.794Z,35.90
2022-10-02T05:48:00.694Z,36.10
2022-10-02T05:49:00.695Z,36.40
2022-10-02T05:50:00.702Z,36.10
2022-10-02T05:51:00.692Z,35.30
2022-10-02T05:52:00.694Z,34.50
2022-10-02T05:53:00.691Z,35.80
2022-10-02T05:54:00.691Z,35.30
2022-10-02T05:55:00.691Z,35.90
2022-10-02T05:56:00.699Z,35.00
2022-10-02T05:57:00.689Z,35.70
2022-10-02T05:58:00.685Z,36.00
2022-10-02T05:59:00.680Z,36.40
2022-10-02T06:00:00.684Z,35.80
2022-10-02T06:01:00.829Z,34.80
2022-10-02T06:02:00.778Z,34.30
2022-10-02T06:03:00.704Z,34.70
2022-10-02T06:04:00.681Z,34.30
2022-10-02T06:05:00.681Z,34.10
2022-10-02T06:06:00.725Z,33.80
2022-10-02T06:07:00.677Z,35.00
2022-10-02T06:08:00.672Z,34.70
2022-10-02T06:09:00.672Z,34.90
2022-10-02T06:10:00.672Z,34.50
2022-10-02T06:11:00.668Z,34.60
2022-10-02T06:12:00.674Z,34.80
2022-10-02T06:13:00.672Z,35.00
2022-10-02T06:14:00.666Z,34.70
2022-10-02T06:15:00.664Z,34.70
2022-10-02T06:16:00.724Z,34.70
2022-10-02T06:17:00.672Z,35.50
2022-10-02T06:18:00.667Z,34.80
2022-10-02T06:19:00.690Z,33.50
2022-10-02T06:20:03.289Z,34.00
2022-10-02T06:21:00.661Z,33.30
2022-10-02T06:22:00.664Z,33.60
2022-10-02T06:23:00.655Z,33.30
2022-10-02T06:24:00.658Z,34.10
2022-10-02T06:25:00.659Z,34.70
2022-10-02T06:26:00.656Z,35.10
2022-10-02T06:27:00.657Z,34.00
2022-10-02T06:28:00.685Z,35.40
2022-10-02T06:29:00.658Z,34.60
2022-10-02T06:30:00.650Z,35.30
2022-10-02T06:31:00.653Z,34.00
2022-10-02T06:32:00.718Z,32.20
2022-10-02T06:33:00.655Z,33.10
2022-10-02T06:34:00.647Z,33.80
2022-10-02T06:35:00.665Z,34.70
2022-10-02T06:36:00.646Z,34.90
2022-10-02T06:37:00.644Z,34.40
2022-10-02T06:38:00.638Z,34.80
2022-10-02T06:39:00.651Z,34.40
2022-10-02T06:40:00.643Z,35.30
2022-10-02T06:41:00.638Z,35.30
2022-10-02T06:42:00.640Z,35.00
2022-10-02T06:43:00.631Z,34.80
2022-10-02T06:44:00.643Z,34.20
2022-10-02T06:45:00.639Z,35.00
2022-10-02T06:46:00.746Z,32.80
2022-10-02T06:47:00.633Z,32.80
2022-10-02T06:48:00.631Z,35.00
2022-10-02T06:49:00.632Z,33.80
2022-10-02T06:50:00.629Z,33.70
2022-10-02T06:51:00.648Z,32.80
2022-10-02T06:52:00.625Z,32.60
2022-10-02T06:53:00.625Z,31.90
2022-10-02T06:54:00.628Z,32.10
2022-10-02T06:55:00.630Z,33.20
2022-10-02T06:56:00.625Z,32.50
2022-10-02T06:57:00.622Z,31.10
2022-10-02T06:58:00.628Z,31.60
2022-10-02T06:59:00.620Z,31.10
2022-10-02T07:00:00.622Z,30.90
2022-10-02T07:01:00.707Z,30.00
2022-10-02T07:02:00.684Z,29.30
2022-10-02T07:03:00.618Z,29.90
2022-10-02T07:04:00.621Z,29.00
2022-10-02T07:05:00.614Z,28.40
2022-10-02T07:06:00.666Z,29.00
2022-10-02T07:07:00.635Z,29.80
2022-10-02T07:08:00.618Z,29.30
2022-10-02T07:09:00.611Z,29.20
2022-10-02T07:10:00.614Z,29.80
2022-10-02T07:11:00.610Z,28.90
2022-10-02T07:12:00.615Z,29.60
2022-10-02T07:13:00.615Z,29.50
2022-10-02T07:14:00.607Z,30.00
2022-10-02T07:15:00.613Z,30.20
2022-10-02T07:16:00.644Z,29.90
2022-10-02T07:17:00.605Z,28.80
2022-10-02T07:18:00.601Z,28.20
2022-10-02T07:19:00.602Z,28.60
2022-10-02T07:20:00.601Z,32.70
2022-10-02T07:21:00.606Z,29.20
2022-10-02T07:22:00.605Z,28.70
2022-10-02T07:23:00.623Z,29.30
2022-10-02T07:24:02.654Z,28.60
2022-10-02T07:25:00.602Z,28.40
2022-10-02T07:26:00.605Z,28.20
2022-10-02T07:27:00.606Z,27.80
2022-10-02T07:28:00.656Z,28.00
2022-10-02T07:29:00.601Z,27.50
2022-10-02T07:30:00.601Z,28.80
2022-10-02T07:31:00.597Z,25.80
2022-10-02T07:32:00.682Z,25.60
2022-10-02T07:33:00.594Z,25.90
2022-10-02T07:34:00.600Z,25.30
2022-10-02T07:35:00.597Z,25.10
2022-10-02T07:36:00.597Z,25.60
2022-10-02T07:37:00.598Z,25.60
2022-10-02T07:38:00.601Z,25.20
2022-10-02T07:39:00.683Z,24.00
2022-10-02T07:40:00.594Z,24.20
2022-10-02T07:41:00.602Z,23.50
2022-10-02T07:42:00.591Z,23.90
2022-10-02T07:43:00.592Z,23.70
2022-10-02T07:44:00.597Z,22.20
2022-10-02T07:45:00.592Z,22.70
2022-10-02T07:46:00.612Z,22.30
2022-10-02T07:47:00.592Z,21.40
2022-10-02T07:48:00.592Z,26.70
2022-10-02T07:49:00.589Z,33.20
2022-10-02T07:50:00.588Z,31.60
2022-10-02T07:51:00.592Z,31.10
2022-10-02T07:52:00.588Z,30.30
2022-10-02T07:53:00.591Z,31.20
2022-10-02T07:54:00.594Z,30.20
2022-10-02T07:55:00.637Z,28.90
2022-10-02T07:56:00.592Z,29.10
2022-10-02T07:57:00.597Z,27.70
2022-10-02T07:58:00.598Z,27.90
2022-10-02T07:59:00.592Z,27.60
2022-10-02T08:00:00.594Z,27.40
2022-10-02T08:01:00.596Z,26.70
2022-10-02T08:02:00.624Z,25.50
2022-10-02T08:03:00.640Z,24.90
2022-10-02T08:04:00.588Z,25.50
2022-10-02T08:05:00.596Z,25.10
2022-10-02T08:06:00.638Z,24.40
2022-10-02T08:07:00.595Z,29.50
2022-10-02T08:08:00.592Z,23.70
2022-10-02T08:09:00.594Z,23.50
2022-10-02T08:10:00.593Z,23.40
2022-10-02T08:11:00.609Z,23.50
2022-10-02T08:12:00.592Z,22.90
2022-10-02T08:13:00.594Z,23.20
2022-10-02T08:14:00.588Z,22.10
2022-10-02T08:15:00.597Z,21.00
2022-10-02T08:16:00.691Z,21.10
2022-10-02T08:17:00.593Z,20.40
2022-10-02T08:18:16.411Z,20.00
2022-10-02T08:19:00.593Z,20.00
2022-10-02T08:20:00.594Z,19.70
2022-10-02T08:21:00.601Z,19.00
2022-10-02T08:22:00.592Z,19.00
2022-10-02T08:23:00.593Z,19.40
2022-10-02T08:24:00.591Z,33.10
2022-10-02T08:25:00.596Z,17.90
2022-10-02T08:26:00.595Z,17.60
2022-10-02T08:27:00.619Z,17.10
2022-10-02T08:28:00.650Z,16.00
2022-10-02T08:29:00.596Z,15.90
2022-10-02T08:30:00.596Z,16.20
2022-10-02T08:31:00.596Z,15.70
2022-10-02T08:32:00.679Z,15.30
2022-10-02T08:33:00.602Z,16.00
2022-10-02T08:34:00.599Z,14.90
2022-10-02T08:35:00.608Z,14.70
2022-10-02T08:36:00.606Z,15.40
2022-10-02T08:37:00.606Z,15.50
2022-10-02T08:38:00.604Z,15.50
2022-10-02T08:39:00.605Z,15.60
2022-10-02T08:40:00.605Z,15.40
2022-10-02T08:41:00.606Z,15.80
2022-10-02T08:42:00.610Z,15.60
2022-10-02T08:43:00.636Z,16.50
2022-10-02T08:44:00.615Z,15.70
2022-10-02T08:45:00.628Z,14.90
2022-10-02T08:46:00.665Z,15.00
2022-10-02T08:47:00.622Z,14.90
2022-10-02T08:48:00.620Z,17.10
2022-10-02T08:49:00.616Z,15.20
2022-10-02T08:50:00.615Z,15.60
2022-10-02T08:51:00.614Z,15.50
2022-10-02T08:52:00.618Z,15.30
2022-10-02T08:53:00.625Z,16.10
2022-10-02T08:54:00.619Z,15.00
2022-10-02T08:55:00.624Z,15.10
2022-10-02T08:56:00.626Z,14.90
2022-10-02T08:57:00.629Z,14.60
2022-10-02T08:58:00.627Z,15.00
2022-10-02T08:59:00.650Z,15.40
2022-10-02T09:00:00.628Z,15.30
2022-10-02T09:01:00.697Z,15.40
2022-10-02T09:02:00.688Z,16.10
2022-10-02T09:03:00.637Z,15.20
2022-10-02T09:04:00.641Z,15.60
2022-10-02T09:05:00.640Z,15.30
2022-10-02T09:06:00.694Z,14.80
2022-10-02T09:07:00.643Z,14.00
2022-10-02T09:08:00.647Z,14.30
2022-10-02T09:09:00.648Z,15.50
2022-10-02T09:10:00.649Z,15.50
2022-10-02T09:11:00.649Z,14.60
2022-10-02T09:12:00.650Z,15.10
2022-10-02T09:13:00.658Z,15.30
2022-10-02T09:14:00.655Z,15.00
2022-10-02T09:15:00.675Z,15.30
2022-10-02T09:16:00.683Z,13.80
2022-10-02T09:17:00.661Z,14.00
2022-10-02T09:18:00.664Z,13.80
2022-10-02T09:19:00.660Z,14.20
2022-10-02T09:20:00.664Z,13.70
2022-10-02T09:21:00.668Z,14.50
2022-10-02T09:22:00.668Z,14.70
2022-10-02T09:23:00.669Z,15.00
2022-10-02T09:24:00.674Z,15.00
2022-10-02T09:25:00.669Z,15.30
2022-10-02T09:26:00.674Z,14.90
2022-10-02T09:27:00.675Z,15.10
2022-10-02T09:28:00.779Z,15.00
2022-10-02T09:29:00.678Z,15.30
2022-10-02T09:30:00.680Z,15.00
2022-10-02T09:31:00.698Z,14.90
2022-10-02T09:32:00.752Z,15.20
2022-10-02T09:33:00.685Z,15.00
2022-10-02T09:34:00.681Z,15.10
2022-10-02T09:35:00.694Z,15.50
2022-10-02T09:36:00.694Z,15.30
2022-10-02T09:37:00.686Z,16.00
2022-10-02T09:38:00.690Z,15.40
2022-10-02T09:39:00.690Z,17.00
2022-10-02T09:40:00.694Z,16.10
2022-10-02T09:41:00.693Z,14.80
2022-10-02T09:42:00.694Z,15.20
2022-10-02T09:43:00.697Z,15.40
2022-10-02T09:44:00.692Z,15.30
2022-10-02T09:45:01.978Z,15.80
2022-10-02T09:46:00.711Z,14.80
2022-10-02T09:47:00.716Z,15.00
2022-10-02T09:48:00.699Z,15.30
2022-10-02T09:49:00.701Z,14.50
2022-10-02T09:50:00.697Z,14.50
2022-10-02T09:51:00.699Z,14.50
2022-10-02T09:52:00.702Z,15.10
2022-10-02T09:53:00.708Z,15.20
2022-10-02T09:54:00.701Z,14.20
2022-10-02T09:55:00.708Z,15.00
2022-10-02T09:56:00.715Z,14.80
2022-10-02T09:57:00.706Z,15.00
2022-10-02T09:58:00.705Z,15.20
2022-10-02T09:59:00.711Z,14.20
2022-10-02T10:00:00.711Z,14.40
2022-10-02T10:01:00.745Z,14.50
2022-10-02T10:02:00.825Z,14.50
2022-10-02T10:03:00.728Z,14.70
2022-10-02T10:04:00.719Z,13.90
2022-10-02T10:05:06.227Z,13.80
2022-10-02T10:06:00.712Z,12.40
2022-10-02T10:07:00.719Z,12.80
2022-10-02T10:08:00.717Z,13.00
2022-10-02T10:09:00.722Z,13.20
2022-10-02T10:10:00.717Z,13.20
2022-10-02T10:11:00.722Z,13.00
2022-10-02T10:12:00.718Z,13.20
2022-10-02T10:13:00.725Z,13.60
2022-10-02T10:14:00.725Z,13.00
2022-10-02T10:15:00.729Z,13.50
2022-10-02T10:16:00.757Z,12.90
2022-10-02T10:17:00.747Z,13.60
2022-10-02T10:18:00.733Z,13.50
2022-10-02T10:19:00.776Z,13.00
2022-10-02T10:20:00.744Z,12.80
2022-10-02T10:21:00.749Z,12.70
2022-10-02T10:22:00.750Z,13.70
2022-10-02T10:23:00.750Z,14.50
2022-10-02T10:24:00.757Z,13.80
2022-10-02T10:25:00.758Z,14.20
2022-10-02T10:26:00.756Z,14.50
2022-10-02T10:27:00.763Z,14.30
2022-10-02T10:28:00.857Z,14.30
2022-10-02T10:29:00.772Z,14.00
2022-10-02T10:30:00.778Z,14.00
2022-10-02T10:31:00.779Z,14.00
2022-10-02T10:32:00.861Z,13.90
2022-10-02T10:33:00.779Z,13.10
2022-10-02T10:34:00.789Z,14.20
2022-10-02T10:35:00.797Z,15.50
2022-10-02T10:36:00.803Z,15.70
2022-10-02T10:37:00.788Z,15.60
2022-10-02T10:38:00.788Z,16.00
2022-10-02T10:39:00.796Z,15.90
2022-10-02T10:40:00.800Z,16.30
2022-10-02T10:41:00.806Z,16.80
2022-10-02T10:42:00.802Z,16.50
2022-10-02T10:43:07.933Z,16.40
2022-10-02T10:44:00.799Z,15.30
2022-10-02T10:45:00.806Z,14.10
2022-10-02T10:46:00.834Z,14.10
2022-10-02T10:47:00.807Z,14.10
2022-10-02T10:48:00.807Z,13.70
2022-10-02T10:49:00.816Z,14.20
2022-10-02T10:50:00.810Z,13.60
2022-10-02T10:51:00.839Z,13.40
2022-10-02T10:52:00.818Z,13.10
2022-10-02T10:53:00.826Z,12.80
2022-10-02T10:54:02.058Z,13.40
2022-10-02T10:55:00.824Z,13.10
2022-10-02T10:56:00.824Z,13.60
2022-10-02T10:57:00.828Z,13.50
2022-10-02T10:58:00.824Z,13.40
2022-10-02T10:59:00.830Z,14.10
2022-10-02T11:00:00.829Z,14.10
2022-10-02T11:01:00.880Z,13.40
2022-10-02T11:02:00.869Z,13.40
2022-10-02T11:03:00.836Z,13.40
2022-10-02T11:04:00.842Z,13.20
2022-10-02T11:05:00.840Z,13.30
2022-10-02T11:06:00.843Z,14.20
2022-10-02T11:07:00.893Z,13.40
2022-10-02T11:08:00.844Z,13.10
2022-10-02T11:09:00.842Z,13.40
2022-10-02T11:10:00.847Z,13.20
2022-10-02T11:11:00.897Z,12.80
2022-10-02T11:12:00.850Z,12.90
2022-10-02T11:13:00.851Z,13.00
2022-10-02T11:14:00.847Z,13.30
2022-10-02T11:15:00.853Z,13.00
2022-10-02T11:16:00.885Z,13.20
2022-10-02T11:17:00.851Z,12.90
2022-10-02T11:18:00.867Z,13.00
2022-10-02T11:19:00.857Z,13.50
2022-10-02T11:20:00.857Z,13.60
2022-10-02T11:21:00.859Z,13.20
2022-10-02T11:22:00.856Z,13.00
2022-10-02T11:23:00.880Z,13.20
2022-10-02T11:24:00.860Z,13.30
2022-10-02T11:25:00.862Z,12.90
2022-10-02T11:26:00.864Z,12.90
2022-10-02T11:27:00.861Z,13.40
2022-10-02T11:28:00.933Z,13.50
2022-10-02T11:29:00.877Z,13.20
2022-10-02T11:30:00.881Z,13.90
2022-10-02T11:31:00.920Z,14.30
2022-10-02T11:32:00.965Z,14.30
2022-10-02T11:33:00.923Z,14.30
2022-10-02T11:34:00.877Z,14.40
2022-10-02T11:35:00.919Z,14.90
2022-10-02T11:36:00.949Z,14.60
2022-10-02T11:37:00.889Z,15.10
2022-10-02T11:38:04.010Z,14.60
2022-10-02T11:39:00.898Z,14.80
2022-10-02T11:40:00.877Z,14.40
2022-10-02T11:41:00.878Z,14.40
2022-10-02T11:42:00.874Z,14.30
2022-10-02T11:43:00.873Z,14.40
2022-10-02T11:44:00.877Z,14.50
2022-10-02T11:45:00.880Z,14.20
2022-10-02T11:46:01.138Z,15.00
2022-10-02T11:47:00.882Z,15.30
2022-10-02T11:48:00.879Z,14.90
2022-10-02T11:49:00.879Z,14.60
2022-10-02T11:50:00.880Z,14.80
2022-10-02T11:51:00.881Z,14.40
2022-10-02T11:52:00.882Z,14.20
2022-10-02T11:53:00.883Z,14.00
2022-10-02T11:54:00.881Z,13.00
2022-10-02T11:55:00.910Z,13.10
2022-10-02T11:56:00.882Z,12.60
2022-10-02T11:57:00.883Z,12.60
2022-10-02T11:58:00.882Z,13.90
2022-10-02T11:59:00.889Z,13.40
2022-10-02T12:00:00.883Z,13.10
2022-10-02T12:01:00.882Z,13.00
2022-10-02T12:02:01.007Z,12.70
2022-10-02T12:03:00.947Z,12.50
2022-10-02T12:04:00.883Z,12.20
2022-10-02T12:05:00.890Z,11.90
2022-10-02T12:06:00.886Z,12.30
2022-10-02T12:07:00.894Z,12.90
2022-10-02T12:08:00.886Z,13.20
2022-10-02T12:09:00.890Z,12.10
2022-10-02T12:10:00.903Z,11.20
2022-10-02T12:11:00.922Z,11.20
2022-10-02T12:12:00.893Z,11.10
2022-10-02T12:13:00.888Z,11.10
2022-10-02T12:14:00.890Z,10.60
2022-10-02T12:15:00.889Z,10.90
2022-10-02T12:16:00.892Z,11.10
2022-10-02T12:17:00.977Z,11.40
2022-10-02T12:18:00.891Z,12.00
2022-10-02T12:19:00.896Z,11.20
2022-10-02T12:20:00.895Z,11.50
2022-10-02T12:21:00.894Z,11.70
2022-10-02T12:22:00.897Z,11.90
2022-10-02T12:23:00.894Z,11.60
2022-10-02T12:24:00.897Z,11.10
2022-10-02T12:25:00.894Z,11.30
2022-10-02T12:26:00.896Z,11.60
2022-10-02T12:27:00.921Z,11.40
2022-10-02T12:28:00.979Z,11.40
2022-10-02T12:29:00.899Z,11.20
2022-10-02T12:30:00.898Z,11.10
2022-10-02T12:31:00.897Z,11.00
2022-10-02T12:32:00.928Z,11.30
2022-10-02T12:33:00.903Z,11.10
2022-10-02T12:34:00.909Z,11.90
2022-10-02T12:35:00.904Z,12.20
2022-10-02T12:36:00.903Z,12.90
2022-10-02T12:37:00.903Z,12.80
2022-10-02T12:38:00.908Z,11.90
2022-10-02T12:39:00.906Z,12.40
2022-10-02T12:40:00.913Z,12.80
2022-10-02T12:41:00.904Z,12.10
2022-10-02T12:42:00.909Z,12.30
2022-10-02T12:43:00.936Z,12.20
2022-10-02T12:44:00.908Z,12.60
2022-10-02T12:45:00.913Z,12.90
2022-10-02T12:46:01.096Z,12.90
2022-10-02T12:47:00.906Z,12.90
2022-10-02T12:48:00.912Z,12.80
2022-10-02T12:49:00.919Z,11.60
2022-10-02T12:50:00.915Z,12.20
2022-10-02T12:51:05.320Z,12.50
2022-10-02T12:52:00.918Z,14.70